Time;durP1;ratioP1;P1;durP2;ratioP2;P2;SDS_P1;SDS_P2;PMS_P1;PMS_P2;Temp;Humidity;BMP_temperature;BMP_pressure;BME280_temperature;BME280_humidity;BME280_pressure;Samples;Min_cycle;Max_cycle;Signal;HPM_P1;HPM_P2
2021/06/02 00:00:39;129969.00;0.43;225.28;0.00;0.00;0.62;;;;;18.00;1.00;;;;;;2252556;61;1158;-85
2021/06/02 00:03:09;141258.00;0.47;244.74;0.00;0.00;0.62;;;;;18.10;1.00;;;;;;2262187;61;1748;-85
2021/06/02 00:05:35;102494.00;0.34;177.88;0.00;0.00;0.62;;;;;18.00;1.00;;;;;;2252723;61;1335;-86
2021/06/02 00:08:01;248377.00;0.83;429.16;28173.00;0.09;49.42;;;;;18.10;1.00;;;;;;2262810;61;1924;-86
2021/06/02 00:10:29;76183.00;0.25;132.44;0.00;0.00;0.62;;;;;18.30;1.00;;;;;;2251781;61;1065;-86
2021/06/02 00:12:56;183204.00;0.61;317.01;56730.00;0.19;98.82;;;;;18.10;1.00;;;;;;2255167;61;1188;-86
2021/06/02 00:15:22;242554.00;0.81;419.14;77183.00;0.26;134.17;;;;;18.20;1.00;;;;;;2255355;61;1377;-86
2021/06/02 00:17:52;219856.00;0.73;380.10;70283.00;0.23;122.25;;;;;17.90;1.00;;;;;;2255432;61;1049;-86
2021/06/02 00:20:19;284763.00;0.95;491.73;66729.00;0.22;116.11;;;;;18.30;1.00;;;;;;2258666;61;1157;-86
2021/06/02 00:22:47;190062.00;0.63;328.82;69670.00;0.23;121.19;;;;;18.40;1.00;;;;;;2258433;61;1098;-86
2021/06/02 00:25:14;316635.00;1.06;546.51;70651.00;0.24;122.89;;;;;18.40;1.00;;;;;;2258397;61;1387;-86
2021/06/02 00:27:42;202965.00;0.68;351.03;72757.00;0.24;126.52;;;;;18.50;1.00;;;;;;2260103;61;1991;-85
2021/06/02 00:30:11;268765.00;0.90;464.22;77791.00;0.26;135.22;;;;;18.30;1.00;;;;;;2271534;61;1073;-85
2021/06/02 00:32:37;64581.00;0.22;112.40;0.00;0.00;0.62;;;;;18.10;1.00;;;;;;2263926;61;1109;-85
2021/06/02 00:35:06;359200.00;1.20;619.67;44345.00;0.15;77.41;;;;;17.80;1.00;;;;;;2260215;61;1359;-85
2021/06/02 00:37:33;96799.00;0.32;168.05;0.00;0.00;0.62;;;;;17.80;1.00;;;;;;2260722;61;1044;-85
2021/06/02 00:40:01;320819.00;1.07;553.71;9724.00;0.03;17.47;;;;;17.90;1.00;;;;;;2258796;61;1148;-85
2021/06/02 00:42:31;102279.00;0.34;177.51;0.00;0.00;0.62;;;;;17.70;1.00;;;;;;2248407;61;1256;-85
2021/06/02 00:45:00;294504.00;0.98;508.47;100266.00;0.33;174.03;;;;;17.80;1.00;;;;;;2252058;61;1479;-85
2021/06/02 00:47:27;343580.00;1.15;592.83;106303.00;0.35;184.45;;;;;17.80;1.00;;;;;;2258338;61;1244;-87
2021/06/02 00:49:53;232828.00;0.78;402.41;72679.00;0.24;126.39;;;;;17.30;1.00;;;;;;2258767;61;1939;-88
2021/06/02 00:52:19;551383.00;1.84;950.34;168208.00;0.56;291.18;;;;;16.70;1.00;;;;;;2251758;61;1135;-86
2021/06/02 00:54:46;274253.00;0.91;473.66;78517.00;0.26;136.48;;;;;17.00;1.00;;;;;;2251784;61;1415;-85
2021/06/02 00:57:15;351251.00;1.17;606.01;77824.00;0.26;135.28;;;;;17.10;1.00;;;;;;2246356;61;1014;-86
2021/06/02 00:59:43;393151.00;1.31;678.03;71085.00;0.24;123.64;;;;;16.70;1.00;;;;;;2251897;61;1226;-86
2021/06/02 01:02:15;323587.00;1.08;558.46;74025.00;0.25;128.72;;;;;17.00;1.00;;;;;;2259789;61;1153;-85
2021/06/02 01:04:44;295746.00;0.99;510.61;75059.00;0.25;130.50;;;;;17.20;1.00;;;;;;2256691;61;1317;-84
2021/06/02 01:07:12;247322.00;0.82;427.35;59490.00;0.20;103.60;;;;;17.10;1.00;;;;;;2263756;61;1234;-85
2021/06/02 01:09:45;268612.00;0.90;463.96;83141.00;0.28;144.46;;;;;17.30;1.00;;;;;;2265316;61;1920;-86
2021/06/02 01:12:15;318015.00;1.06;548.89;77793.00;0.26;135.22;;;;;17.40;1.00;;;;;;2263546;61;997;-85
2021/06/02 01:14:44;413158.00;1.38;712.43;76719.00;0.26;133.37;;;;;17.30;1.00;;;;;;2266173;61;1366;-85
2021/06/02 01:17:14;370800.00;1.24;639.61;130652.00;0.44;226.45;;;;;17.60;1.00;;;;;;2266735;61;1200;-86
2021/06/02 01:19:41;31593.00;0.11;55.34;0.00;0.00;0.62;;;;;17.60;1.00;;;;;;2263396;61;1223;-86
2021/06/02 01:22:09;224711.00;0.75;388.45;72729.00;0.24;126.48;;;;;17.50;1.00;;;;;;2266539;61;1244;-86
2021/06/02 01:24:36;232120.00;0.77;401.20;68316.00;0.23;118.85;;;;;17.80;1.00;;;;;;2266809;61;1448;-86
2021/06/02 01:27:05;257194.00;0.86;444.32;71423.00;0.24;124.22;;;;;17.50;1.00;;;;;;2263851;61;1161;-86
2021/06/02 01:29:33;392309.00;1.31;676.58;75577.00;0.25;131.40;;;;;17.80;1.00;;;;;;2265114;61;2012;-85
2021/06/02 01:32:25;630646.00;2.10;1087.17;155690.00;0.52;269.61;;;;;17.00;1.00;;;;;;2267700;61;1111;-85
2021/06/02 01:35:45;10447.00;0.03;18.72;0.00;0.00;0.62;;;;;17.20;1.00;;;;;;2266663;61;1451;-86
2021/06/02 01:38:49;236559.00;0.79;408.83;17381.00;0.06;30.73;;;;;16.90;1.00;;;;;;2263184;61;1268;-86
2021/06/02 01:41:22;0.00;0.00;0.62;0.00;0.00;0.62;;;;;17.20;1.00;;;;;;2263398;61;1172;-86
2021/06/02 01:44:22;31446.00;0.10;55.09;0.00;0.00;0.62;;;;;17.30;1.00;;;;;;2261417;61;1197;-86
2021/06/02 01:47:17;336909.00;1.12;581.36;17769.00;0.06;31.41;;;;;17.50;1.00;;;;;;2254634;61;1430;-86
2021/06/02 01:50:03;64756.00;0.22;112.70;0.00;0.00;0.62;;;;;17.30;1.00;;;;;;2255289;61;2021;-86
2021/06/02 01:53:08;163658.00;0.55;283.34;74297.00;0.25;129.19;;;;;17.60;1.00;;;;;;2261765;61;1192;-86
2021/06/02 01:56:05;244370.00;0.81;422.27;70234.00;0.23;122.16;;;;;17.00;1.00;;;;;;2249087;61;1302;-86
2021/06/02 01:59:06;180574.00;0.60;312.48;83176.00;0.28;144.52;;;;;16.90;1.00;;;;;;2245291;62;1006;-86
2021/06/02 02:01:59;170242.00;0.57;294.68;74238.00;0.25;129.08;;;;;17.00;1.00;;;;;;2241995;61;1257;-86
2021/06/02 02:04:57;234088.00;0.78;404.58;77389.00;0.26;134.53;;;;;16.80;1.00;;;;;;2253424;61;1245;-86
2021/06/02 02:07:36;0.00;0.00;0.62;0.00;0.00;0.62;;;;;16.80;1.00;;;;;;2246589;61;1166;-86
2021/06/02 02:10:22;0.00;0.00;0.62;0.00;0.00;0.62;;;;;17.30;1.00;;;;;;2246992;61;1936;-86
2021/06/02 02:13:03;6776.00;0.02;12.36;0.00;0.00;0.62;;;;;17.30;1.00;;;;;;2249839;61;1153;-86
2021/06/02 02:15:47;84549.00;0.28;146.89;17535.00;0.06;31.00;;;;;16.60;1.00;;;;;;2246557;61;1311;-85
2021/06/02 02:18:31;290341.00;0.97;501.32;63489.00;0.21;110.51;;;;;16.70;1.00;;;;;;2260756;61;1214;-86
2021/06/02 02:21:11;153907.00;0.51;266.54;11789.00;0.04;21.05;;;;;16.20;1.00;;;;;;2260891;61;1207;-85
2021/06/02 02:23:43;15795.00;0.05;27.99;0.00;0.00;0.62;;;;;16.10;1.00;;;;;;2259306;61;1172;-84
2021/06/02 02:26:25;10683.00;0.04;19.13;0.00;0.00;0.62;;;;;16.00;1.00;;;;;;2260019;61;1391;-84
2021/06/02 02:28:54;145728.00;0.49;252.44;49499.00;0.16;86.32;;;;;16.00;1.00;;;;;;2260475;61;1988;-84
2021/06/02 02:31:56;0.00;0.00;0.62;0.00;0.00;0.62;;;;;15.80;1.00;;;;;;2263544;61;1185;-84
2021/06/02 02:34:53;0.00;0.00;0.62;0.00;0.00;0.62;;;;;16.10;1.00;;;;;;2265907;61;1192;-85
2021/06/02 02:37:30;0.00;0.00;0.62;0.00;0.00;0.62;;;;;16.80;1.00;;;;;;2268602;61;1183;-85
2021/06/02 02:40:02;226449.00;0.75;391.44;0.00;0.00;0.62;;;;;17.10;1.00;;;;;;2268662;61;1203;-85
2021/06/02 02:42:40;49414.00;0.16;86.17;0.00;0.00;0.62;;;;;16.90;1.00;;;;;;2269587;61;1090;-85
2021/06/02 02:45:18;127755.00;0.43;221.46;0.00;0.00;0.62;;;;;16.60;1.00;;;;;;2269091;61;1375;-84
2021/06/02 02:48:00;94705.00;0.32;164.43;0.00;0.00;0.62;;;;;16.50;1.00;;;;;;2268527;61;1611;-84
2021/06/02 02:50:37;253831.00;0.85;438.54;18913.00;0.06;33.39;;;;;16.20;1.00;;;;;;2268814;61;1109;-84
2021/06/02 02:53:08;141846.00;0.47;245.75;0.00;0.00;0.62;;;;;16.50;1.00;;;;;;2268738;61;1620;-84
2021/06/02 02:55:37;97255.00;0.32;168.83;0.00;0.00;0.62;;;;;16.90;1.00;;;;;;2268635;61;1745;-84
2021/06/02 02:58:14;237600.00;0.79;410.62;72992.00;0.24;126.93;;;;;16.90;1.00;;;;;;2268235;61;1588;-84
2021/06/02 03:00:44;123115.00;0.41;213.46;0.00;0.00;0.62;;;;;17.50;1.00;;;;;;2269680;61;1802;-85
2021/06/02 03:03:22;123402.00;0.41;213.95;0.00;0.00;0.62;;;;;17.20;1.00;;;;;;2271549;61;1708;-86
2021/06/02 03:06:08;140158.00;0.47;242.84;0.00;0.00;0.62;;;;;16.90;1.00;;;;;;2270652;61;1440;-86
2021/06/02 03:08:42;196227.00;0.65;339.43;0.00;0.00;0.62;;;;;17.10;1.00;;;;;;2268417;61;1996;-84
2021/06/02 03:11:14;138319.00;0.46;239.67;0.00;0.00;0.62;;;;;17.30;1.00;;;;;;2268909;61;1189;-85
2021/06/02 03:13:48;48344.00;0.16;84.32;0.00;0.00;0.62;;;;;16.70;1.00;;;;;;2269023;61;1100;-85
2021/06/02 03:16:20;107504.00;0.36;186.52;0.00;0.00;0.62;;;;;16.10;1.00;;;;;;2268210;61;1603;-85
2021/06/02 03:19:05;200316.00;0.67;346.47;4655.00;0.02;8.69;;;;;15.90;1.00;;;;;;2268120;61;1099;-84
2021/06/02 03:21:53;59004.00;0.20;102.75;0.00;0.00;0.62;;;;;16.00;1.00;;;;;;2268422;61;1229;-85
2021/06/02 03:24:43;313484.00;1.04;541.10;81895.00;0.27;142.31;;;;;16.50;1.00;;;;;;2269176;61;1116;-85
2021/06/02 03:27:14;228667.00;0.76;395.26;73181.00;0.24;127.26;;;;;16.80;1.00;;;;;;2268913;61;1560;-85
2021/06/02 03:29:52;210173.00;0.70;363.43;82754.00;0.28;143.79;;;;;17.00;1.00;;;;;;2269025;61;1919;-85
2021/06/02 03:32:31;0.00;0.00;0.62;0.00;0.00;0.62;;;;;16.80;1.00;;;;;;2269217;61;1115;-85
2021/06/02 03:35:08;0.00;0.00;0.62;0.00;0.00;0.62;;;;;17.00;1.00;;;;;;2258776;61;1325;-85
2021/06/02 03:37:59;40366.00;0.13;70.52;0.00;0.00;0.62;;;;;17.30;1.00;;;;;;2268808;61;1167;-85
2021/06/02 03:40:37;251228.00;0.84;434.06;88831.00;0.30;154.29;;;;;17.10;1.00;;;;;;2267927;61;1085;-84
2021/06/02 03:43:15;217519.00;0.73;376.07;76042.00;0.25;132.20;;;;;16.40;1.00;;;;;;2267916;61;1164;-83
2021/06/02 03:45:53;119704.00;0.40;207.57;13889.00;0.05;24.69;;;;;16.20;1.00;;;;;;2268313;61;1334;-84
2021/06/02 03:48:37;0.00;0.00;0.62;0.00;0.00;0.62;;;;;16.40;1.00;;;;;;2268204;61;1932;-84
2021/06/02 03:51:25;178420.00;0.59;308.77;72779.00;0.24;126.56;;;;;16.20;1.00;;;;;;2268169;61;1723;-84
2021/06/02 03:54:07;535946.00;1.79;923.74;250494.00;0.83;432.80;;;;;16.60;1.00;;;;;;2257225;61;1177;-84
2021/06/02 03:57:03;353139.00;1.18;609.26;78551.00;0.26;136.53;;;;;16.40;1.00;;;;;;2267319;61;1551;-84
2021/06/02 03:59:39;68003.00;0.23;118.31;0.00;0.00;0.62;;;;;16.00;1.00;;;;;;2245645;61;1062;-83
2021/06/02 04:02:14;62789.00;0.21;109.30;0.00;0.00;0.62;;;;;15.80;1.00;;;;;;2245853;61;1068;-84
2021/06/02 04:05:07;62097.00;0.21;108.10;0.00;0.00;0.62;;;;;15.60;1.00;;;;;;2246108;61;1396;-84
2021/06/02 04:07:47;0.00;0.00;0.62;0.00;0.00;0.62;;;;;15.90;1.00;;;;;;2247415;61;1141;-84
2021/06/02 04:10:24;12659.00;0.04;22.56;0.00;0.00;0.62;;;;;16.30;1.00;;;;;;2246667;61;2008;-84
2021/06/02 04:12:59;35603.00;0.12;62.28;0.00;0.00;0.62;;;;;15.50;1.00;;;;;;2246664;61;1660;-84
2021/06/02 04:15:29;115222.00;0.38;199.84;0.00;0.00;0.62;;;;;14.90;1.00;;;;;;2246364;61;1334;-83
2021/06/02 04:17:57;105771.00;0.35;183.53;0.00;0.00;0.62;;;;;14.80;1.00;;;;;;2255220;61;1113;-90
2021/06/02 04:20:25;329665.00;1.10;568.91;21531.00;0.07;37.92;;;;;14.90;1.00;;;;;;2259897;61;1612;-87
2021/06/02 04:22:57;118194.00;0.39;204.97;0.00;0.00;0.62;;;;;14.50;1.00;;;;;;2256127;61;1116;-84
2021/06/02 04:25:24;85526.00;0.29;148.58;0.00;0.00;0.62;;;;;14.20;1.00;;;;;;2254858;61;1458;-85
2021/06/02 04:27:50;163069.00;0.54;282.33;0.00;0.00;0.62;;;;;13.80;1.00;;;;;;2254564;61;1253;-83
2021/06/02 04:30:19;264561.00;0.88;456.99;24974.00;0.08;43.88;;;;;13.10;1.00;;;;;;2254351;61;2039;-84
2021/06/02 04:32:47;230338.00;0.77;398.13;0.00;0.00;0.62;;;;;13.20;1.00;;;;;;2254436;61;1213;-84
2021/06/02 04:35:15;191143.00;0.64;330.68;31182.00;0.10;54.63;;;;;13.90;1.00;;;;;;2255040;61;1571;-84
2021/06/02 04:37:41;78059.00;0.26;135.68;0.00;0.00;0.62;;;;;14.60;1.00;;;;;;2265522;61;1262;-84
2021/06/02 04:40:11;103869.00;0.35;180.25;0.00;0.00;0.62;;;;;15.20;1.00;;;;;;2267303;61;1191;-84
2021/06/02 04:42:39;218451.00;0.73;377.68;0.00;0.00;0.62;;;;;16.10;1.00;;;;;;2267049;61;1227;-84
2021/06/02 04:45:08;152209.00;0.51;263.61;0.00;0.00;0.62;;;;;16.40;1.00;;;;;;2267248;61;1676;-85
2021/06/02 04:47:36;51426.00;0.17;89.65;0.00;0.00;0.62;;;;;16.50;1.00;;;;;;2256843;61;1032;-85
2021/06/02 04:50:14;313138.00;1.04;540.50;56587.00;0.19;98.58;;;;;16.50;1.00;;;;;;2257362;61;2009;-84
2021/06/02 04:53:22;182890.00;0.61;316.47;0.00;0.00;0.62;;;;;16.20;1.00;;;;;;2257838;61;1564;-84
2021/06/02 04:56:11;37874.00;0.13;66.21;0.00;0.00;0.62;;;;;15.60;1.00;;;;;;2257257;61;1831;-85
2021/06/02 04:59:08;0.00;0.00;0.62;0.00;0.00;0.62;;;;;15.80;1.00;;;;;;2258031;61;1089;-87
2021/06/02 05:02:07;142832.00;0.48;247.45;0.00;0.00;0.62;;;;;15.70;1.00;;;;;;2258809;61;1565;-85
2021/06/02 05:05:20;0.00;0.00;0.62;0.00;0.00;0.62;;;;;16.10;1.00;;;;;;2252249;61;1399;-85
2021/06/02 05:08:47;28557.00;0.10;50.09;0.00;0.00;0.62;;;;;16.80;1.00;;;;;;2264166;61;1633;-85
2021/06/02 05:12:03;0.00;0.00;0.62;0.00;0.00;0.62;;;;;16.90;1.00;;;;;;2270762;61;1124;-85
2021/06/02 05:15:05;0.00;0.00;0.62;0.00;0.00;0.62;;;;;17.00;1.00;;;;;;2271283;61;1135;-84
2021/06/02 05:17:59;0.00;0.00;0.62;0.00;0.00;0.62;;;;;16.80;1.00;;;;;;2266118;61;1251;-86
2021/06/02 05:24:37;0.00;0.00;0.62;0.00;0.00;0.62;;;;;16.10;1.00;;;;;;2264198;61;1126;-87
2021/06/02 05:27:52;0.00;0.00;0.62;0.00;0.00;0.62;;;;;15.40;1.00;;;;;;2258197;61;1180;-86
2021/06/02 05:30:59;0.00;0.00;0.62;0.00;0.00;0.62;;;;;15.00;1.00;;;;;;2249980;61;1938;-86
2021/06/02 05:33:58;0.00;0.00;0.62;0.00;0.00;0.62;;;;;15.50;1.00;;;;;;2250047;61;1269;-86
2021/06/02 05:36:54;0.00;0.00;0.62;0.00;0.00;0.62;;;;;16.00;1.00;;;;;;2250487;61;1423;-86
2021/06/02 05:39:49;0.00;0.00;0.62;0.00;0.00;0.62;;;;;16.30;1.00;;;;;;2250610;61;1115;-84
2021/06/02 05:42:24;8644.00;0.03;15.60;0.00;0.00;0.62;;;;;17.80;1.00;;;;;;2250121;61;1146;-85
2021/06/02 05:45:38;281335.00;0.94;485.83;81793.00;0.27;142.13;;;;;19.90;1.00;;;;;;2254949;61;1375;-85
2021/06/02 05:48:59;0.00;0.00;0.62;0.00;0.00;0.62;;;;;21.70;1.00;;;;;;2265658;61;1204;-85
2021/06/02 05:51:51;32818.00;0.11;57.46;0.00;0.00;0.62;;;;;22.70;1.00;;;;;;2268051;61;1320;-85
2021/06/02 05:55:18;271215.00;0.90;468.43;44222.00;0.15;77.19;;;;;24.50;1.00;;;;;;2269386;61;1334;-83
2021/06/02 05:58:28;0.00;0.00;0.62;0.00;0.00;0.62;;;;;26.20;1.00;;;;;;2269824;61;1151;-84
2021/06/02 06:01:36;144411.00;0.48;250.17;76947.00;0.26;133.76;;;;;27.70;1.00;;;;;;2268445;61;1227;-85
2021/06/02 06:04:39;0.00;0.00;0.62;0.00;0.00;0.62;;;;;28.10;1.00;;;;;;2271080;61;1188;-85
2021/06/02 06:07:24;0.00;0.00;0.62;0.00;0.00;0.62;;;;;29.30;1.00;;;;;;2271332;61;1168;-86
2021/06/02 06:10:25;0.00;0.00;0.62;0.00;0.00;0.62;;;;;29.60;1.00;;;;;;2272599;61;1919;-86
2021/06/02 06:13:42;0.00;0.00;0.62;0.00;0.00;0.62;;;;;29.80;1.00;;;;;;2272171;61;1163;-89
2021/06/02 06:16:56;0.00;0.00;0.62;0.00;0.00;0.62;;;;;29.70;1.00;;;;;;2255779;61;1391;-86
2021/06/02 06:20:12;101403.00;0.34;175.99;12048.00;0.04;21.50;;;;;30.30;1.00;;;;;;2272101;61;1144;-87
2021/06/02 06:22:54;170266.00;0.57;294.72;68156.00;0.23;118.57;;;;;29.90;1.00;;;;;;2264318;61;1148;-91
2021/06/02 06:25:25;29269.00;0.10;51.32;0.00;0.00;0.62;;;;;30.70;1.00;;;;;;2264078;61;1712;-87
2021/06/02 06:27:56;0.00;0.00;0.62;0.00;0.00;0.62;;;;;30.70;1.00;;;;;;2263953;61;1085;-88
2021/06/02 06:30:26;12602.00;0.04;22.46;0.00;0.00;0.62;;;;;30.90;1.00;;;;;;2261218;61;2023;-88
2021/06/02 06:32:56;34485.00;0.11;60.35;0.00;0.00;0.62;;;;;31.20;1.00;;;;;;2263955;61;1155;-89
2021/06/02 06:35:24;24172.00;0.08;42.49;0.00;0.00;0.62;;;;;30.80;1.00;;;;;;2262342;61;1434;-88
2021/06/02 06:37:54;0.00;0.00;0.62;0.00;0.00;0.62;;;;;31.10;1.00;;;;;;2261138;61;1038;-85
2021/06/02 06:40:23;214845.00;0.72;371.47;11782.00;0.04;21.04;;;;;31.50;1.00;;;;;;2261606;61;1183;-88
2021/06/02 06:42:53;165650.00;0.55;286.77;27823.00;0.09;48.81;;;;;31.60;1.00;;;;;;2260748;61;1624;-88
2021/06/02 06:45:24;98869.00;0.33;171.62;0.00;0.00;0.62;;;;;31.70;1.00;;;;;;2261738;61;1324;-86
2021/06/02 06:47:52;152056.00;0.51;263.35;0.00;0.00;0.62;;;;;32.10;1.00;;;;;;2261913;61;1173;-86
2021/06/02 06:50:20;0.00;0.00;0.62;0.00;0.00;0.62;;;;;32.10;1.00;;;;;;2262011;61;2001;-86
2021/06/02 06:52:52;138278.00;0.46;239.60;0.00;0.00;0.62;;;;;32.20;1.00;;;;;;2261511;61;1173;-86
2021/06/02 06:55:20;140601.00;0.47;243.61;0.00;0.00;0.62;;;;;32.30;1.00;;;;;;2260408;61;1690;-86
2021/06/02 06:57:47;96754.00;0.32;167.97;0.00;0.00;0.62;;;;;33.00;1.00;;;;;;2263001;61;1135;-86
2021/06/02 07:00:15;116588.00;0.39;202.20;0.00;0.00;0.62;;;;;32.30;1.00;;;;;;2271212;61;1071;-86
2021/06/02 07:02:44;414376.00;1.38;714.52;104094.00;0.35;180.64;;;;;32.20;1.00;;;;;;2271605;61;1551;-87
2021/06/02 07:05:12;123077.00;0.41;213.39;0.00;0.00;0.62;;;;;32.50;1.00;;;;;;2271799;61;1279;-87
2021/06/02 07:07:43;117523.00;0.39;203.81;0.00;0.00;0.62;;;;;32.70;1.00;;;;;;2272653;61;1256;-90
2021/06/02 07:10:12;182467.00;0.61;315.74;0.00;0.00;0.62;;;;;33.40;1.00;;;;;;2272635;61;2015;-88
2021/06/02 07:12:42;19735.00;0.07;34.81;0.00;0.00;0.62;;;;;35.50;1.00;;;;;;2271693;61;1638;-85
2021/06/02 07:15:10;156083.00;0.52;270.29;0.00;0.00;0.62;;;;;35.60;1.00;;;;;;2271350;61;1355;-86
2021/06/02 07:17:40;141179.00;0.47;244.60;0.00;0.00;0.62;;;;;35.50;1.00;;;;;;2271623;61;1629;-85
2021/06/02 07:20:11;129155.00;0.43;223.87;0.00;0.00;0.62;;;;;35.70;1.00;;;;;;2271991;61;1739;-85
2021/06/02 07:22:43;90907.00;0.30;157.87;0.00;0.00;0.62;;;;;35.10;1.00;;;;;;2272463;61;1057;-87
2021/06/02 07:25:13;75228.00;0.25;130.79;0.00;0.00;0.62;;;;;34.80;1.00;;;;;;2271786;61;1314;-85
2021/06/02 07:27:40;325956.00;1.09;562.54;0.00;0.00;0.62;;;;;33.60;1.00;;;;;;2271543;61;1171;-85
2021/06/02 07:30:07;147450.00;0.49;255.41;0.00;0.00;0.62;;;;;34.80;1.00;;;;;;2271714;61;1923;-87
2021/06/02 07:32:34;27572.00;0.09;48.38;0.00;0.00;0.62;;;;;35.90;1.00;;;;;;2271470;61;1108;-85
2021/06/02 07:35:00;36163.00;0.12;63.25;0.00;0.00;0.62;;;;;35.50;1.00;;;;;;2271833;61;1461;-86
2021/06/02 07:37:27;0.00;0.00;0.62;0.00;0.00;0.62;;;;;35.60;1.00;;;;;;2265146;61;1098;-85
2021/06/02 07:39:54;117461.00;0.39;203.70;0.00;0.00;0.62;;;;;33.90;1.00;;;;;;2271831;61;1671;-85
2021/06/02 07:42:21;0.00;0.00;0.62;0.00;0.00;0.62;;;;;33.20;1.00;;;;;;2271317;61;1164;-85
2021/06/02 07:44:47;57411.00;0.19;100.00;0.00;0.00;0.62;;;;;34.70;1.00;;;;;;2260807;61;1427;-86
2021/06/02 07:47:14;0.00;0.00;0.62;0.00;0.00;0.62;;;;;34.90;1.00;;;;;;2264420;61;1162;-86
2021/06/02 07:49:40;75077.00;0.25;130.53;0.00;0.00;0.62;;;;;34.70;1.00;;;;;;2271824;61;1997;-86
2021/06/02 07:52:07;0.00;0.00;0.62;0.00;0.00;0.62;;;;;34.50;1.00;;;;;;2272011;61;1806;-87
2021/06/02 07:54:33;14093.00;0.05;25.04;0.00;0.00;0.62;;;;;35.10;1.00;;;;;;2272113;61;1668;-87
2021/06/02 07:57:01;0.00;0.00;0.62;0.00;0.00;0.62;;;;;34.80;1.00;;;;;;2271294;61;1391;-86
2021/06/02 07:59:27;59478.00;0.20;103.57;0.00;0.00;0.62;;;;;34.70;1.00;;;;;;2271032;61;1176;-85
2021/06/02 08:01:54;166275.00;0.55;287.85;0.00;0.00;0.62;;;;;35.00;1.00;;;;;;2261626;61;1149;-87
2021/06/02 08:04:20;0.00;0.00;0.62;0.00;0.00;0.62;;;;;33.50;1.00;;;;;;2271358;61;1077;-86
2021/06/02 08:06:47;116705.00;0.39;202.40;0.00;0.00;0.62;;;;;33.40;1.00;;;;;;2271781;61;1636;-85
2021/06/02 08:09:17;0.00;0.00;0.62;0.00;0.00;0.62;;;;;33.60;1.00;;;;;;2271532;61;1935;-86
2021/06/02 08:11:44;0.00;0.00;0.62;0.00;0.00;0.62;;;;;34.60;1.00;;;;;;2265090;61;1149;-86
2021/06/02 08:14:12;195223.00;0.65;337.70;21204.00;0.07;37.36;;;;;34.20;1.00;;;;;;2263846;61;1168;-85
2021/06/02 08:16:38;100633.00;0.34;174.66;0.00;0.00;0.62;;;;;33.50;1.00;;;;;;2272100;61;1340;-87
2021/06/02 08:19:05;0.00;0.00;0.62;0.00;0.00;0.62;;;;;33.80;1.00;;;;;;2272386;61;1063;-88
2021/06/02 08:21:32;341445.00;1.14;589.16;58406.00;0.19;101.72;;;;;32.90;1.00;;;;;;2272416;61;895;-86
2021/06/02 08:23:58;117569.00;0.39;203.89;6058.00;0.02;11.12;;;;;33.60;1.00;;;;;;2272471;61;1138;-86
2021/06/02 08:26:25;0.00;0.00;0.62;0.00;0.00;0.62;;;;;33.30;1.00;;;;;;2272409;61;1415;-88
2021/06/02 08:28:51;0.00;0.00;0.62;0.00;0.00;0.62;;;;;33.30;1.00;;;;;;2272323;61;2004;-88
2021/06/02 08:31:19;331029.00;1.10;571.25;84430.00;0.28;146.69;;;;;32.70;1.00;;;;;;2263810;61;1040;-88
2021/06/02 08:33:45;0.00;0.00;0.62;0.00;0.00;0.62;;;;;32.70;1.00;;;;;;2263900;61;939;-88
2021/06/02 08:36:12;0.00;0.00;0.62;0.00;0.00;0.62;;;;;33.70;1.00;;;;;;2263880;61;1310;-86
2021/06/02 08:38:38;246432.00;0.82;425.81;108223.00;0.36;187.76;;;;;34.60;1.00;;;;;;2263883;61;1118;-88
2021/06/02 08:41:06;0.00;0.00;0.62;0.00;0.00;0.62;;;;;34.30;1.00;;;;;;2263867;61;958;-86
2021/06/02 08:43:34;0.00;0.00;0.62;0.00;0.00;0.62;;;;;33.90;1.00;;;;;;2263804;61;1118;-87
2021/06/02 08:46:00;12115.00;0.04;21.61;0.00;0.00;0.62;;;;;34.10;1.00;;;;;;2263815;61;1443;-87
2021/06/02 08:48:28;0.00;0.00;0.62;0.00;0.00;0.62;;;;;34.20;1.00;;;;;;2264737;61;1625;-89
2021/06/02 08:50:55;0.00;0.00;0.62;0.00;0.00;0.62;;;;;34.40;1.00;;;;;;2272222;61;1985;-88
2021/06/02 08:53:22;0.00;0.00;0.62;0.00;0.00;0.62;;;;;34.20;1.00;;;;;;2271989;61;1064;-86
2021/06/02 08:55:49;0.00;0.00;0.62;0.00;0.00;0.62;;;;;33.90;1.00;;;;;;2264126;61;1317;-85
2021/06/02 08:58:19;32965.00;0.11;57.71;0.00;0.00;0.62;;;;;33.50;1.00;;;;;;2271908;61;1122;-87
2021/06/02 09:00:45;97655.00;0.33;169.52;0.00;0.00;0.62;;;;;33.70;1.00;;;;;;2272119;61;1680;-89
2021/06/02 09:03:13;0.00;0.00;0.62;0.00;0.00;0.62;;;;;33.40;1.00;;;;;;2272273;61;1152;-90
2021/06/02 09:05:41;0.00;0.00;0.62;0.00;0.00;0.62;;;;;33.00;1.00;;;;;;2272255;61;1310;-88
2021/06/02 09:08:12;0.00;0.00;0.62;0.00;0.00;0.62;;;;;33.00;1.00;;;;;;2272273;61;968;-88
2021/06/02 09:10:39;0.00;0.00;0.62;0.00;0.00;0.62;;;;;32.90;1.00;;;;;;2272228;61;1995;-89
2021/06/02 09:13:15;0.00;0.00;0.62;0.00;0.00;0.62;;;;;33.00;1.00;;;;;;2272245;61;1562;-89
2021/06/02 09:15:45;0.00;0.00;0.62;0.00;0.00;0.62;;;;;33.10;1.00;;;;;;2271741;61;1379;-90
2021/06/02 09:18:17;54877.00;0.18;95.62;0.00;0.00;0.62;;;;;32.80;1.00;;;;;;2263666;61;976;-90
2021/06/02 09:20:46;162386.00;0.54;281.15;15311.00;0.05;27.15;;;;;32.10;1.00;;;;;;2263599;61;1033;-87
2021/06/02 09:23:32;0.00;0.00;0.62;0.00;0.00;0.62;;;;;31.20;1.00;;;;;;2263664;61;1068;-89
2021/06/02 09:26:19;0.00;0.00;0.62;0.00;0.00;0.62;;;;;31.00;1.00;;;;;;2263603;61;1506;-90
2021/06/02 09:28:57;0.00;0.00;0.62;0.00;0.00;0.62;;;;;31.20;1.00;;;;;;2263664;61;1997;-89
2021/06/02 09:31:33;38273.00;0.13;66.90;0.00;0.00;0.62;;;;;30.70;1.00;;;;;;2263751;61;1091;-88
2021/06/02 09:34:03;137228.00;0.46;237.79;13414.00;0.04;23.86;;;;;29.80;1.00;;;;;;2263624;61;1165;-89
2021/06/02 09:36:32;0.00;0.00;0.62;0.00;0.00;0.62;;;;;29.90;1.00;;;;;;2263547;61;1353;-88
2021/06/02 09:39:01;37336.00;0.12;65.28;0.00;0.00;0.62;;;;;30.10;1.00;;;;;;2268386;61;1206;-89
2021/06/02 09:41:29;0.00;0.00;0.62;0.00;0.00;0.62;;;;;30.30;1.00;;;;;;2261788;61;1023;-89
2021/06/02 09:43:56;0.00;0.00;0.62;0.00;0.00;0.62;;;;;30.30;1.00;;;;;;2272213;61;1122;-88
2021/06/02 09:46:23;0.00;0.00;0.62;0.00;0.00;0.62;;;;;30.30;1.00;;;;;;2272153;61;1355;-89
2021/06/02 09:49:01;0.00;0.00;0.62;0.00;0.00;0.62;;;;;30.50;1.00;;;;;;2272138;61;1994;-89
2021/06/02 09:51:47;81709.00;0.27;141.99;0.00;0.00;0.62;;;;;30.60;1.00;;;;;;2272215;61;1102;-88
2021/06/02 09:54:13;136899.00;0.46;237.22;18165.00;0.06;32.09;;;;;30.90;1.00;;;;;;2265142;61;1009;-88
2021/06/02 09:56:41;0.00;0.00;0.62;0.00;0.00;0.62;;;;;30.50;1.00;;;;;;2272148;61;1408;-88
2021/06/02 09:59:09;73237.00;0.24;127.35;0.00;0.00;0.62;;;;;29.60;1.00;;;;;;2272181;61;1008;-87
2021/06/02 10:01:52;108440.00;0.36;188.14;0.00;0.00;0.62;;;;;29.40;1.00;;;;;;2272144;61;1151;-87
2021/06/02 10:04:20;182062.00;0.61;315.04;66693.00;0.22;116.05;;;;;29.60;1.00;;;;;;2272136;61;1068;-89
2021/06/02 10:06:47;310375.00;1.03;535.75;74751.00;0.25;129.97;;;;;29.70;1.00;;;;;;2271733;61;1454;-89
2021/06/02 10:09:14;171513.00;0.57;296.87;72037.00;0.24;125.28;;;;;29.90;1.00;;;;;;2271246;61;1919;-91
2021/06/02 10:11:57;148569.00;0.50;257.34;3546.00;0.01;6.77;;;;;30.40;1.00;;;;;;2272064;61;1022;-91
2021/06/02 10:14:23;204432.00;0.68;353.55;71800.00;0.24;124.87;;;;;30.80;1.00;;;;;;2272106;61;1117;-88
2021/06/02 10:16:50;317143.00;1.06;547.39;72241.00;0.24;125.63;;;;;30.80;1.00;;;;;;2271547;61;1291;-90
2021/06/02 10:19:39;170815.00;0.57;295.67;66250.00;0.22;115.28;;;;;30.90;1.00;;;;;;2272044;61;1612;-89
2021/06/02 10:22:19;169444.00;0.56;293.31;72954.00;0.24;126.86;;;;;30.40;1.00;;;;;;2272375;61;1038;-91
2021/06/02 10:24:47;101847.00;0.34;176.76;0.00;0.00;0.62;;;;;30.90;1.00;;;;;;2272713;61;1330;-91
2021/06/02 10:27:14;87477.00;0.29;151.95;0.00;0.00;0.62;;;;;30.70;1.00;;;;;;2272810;61;1056;-88
2021/06/02 10:29:41;174724.00;0.58;302.40;0.00;0.00;0.62;;;;;30.60;1.00;;;;;;2272748;61;1908;-87
2021/06/02 10:32:08;45901.00;0.15;80.10;0.00;0.00;0.62;;;;;30.10;1.00;;;;;;2272723;61;910;-87
2021/06/02 10:34:34;98849.00;0.33;171.59;0.00;0.00;0.62;;;;;29.80;1.00;;;;;;2272757;61;994;-87
2021/06/02 10:37:01;62756.00;0.21;109.24;0.00;0.00;0.62;;;;;29.60;1.00;;;;;;2272732;61;1325;-89
2021/06/02 10:39:32;57352.00;0.19;99.90;0.00;0.00;0.62;;;;;29.30;1.00;;;;;;2272735;61;1112;-87
2021/06/02 10:42:05;81784.00;0.27;142.12;0.00;0.00;0.62;;;;;28.60;1.00;;;;;;2272702;61;1110;-86
2021/06/02 10:44:35;16463.00;0.05;29.14;0.00;0.00;0.62;;;;;28.60;1.00;;;;;;2264127;61;953;-87